Time;durP1;ratioP1;P1;durP2;ratioP2;P2;SDS_P1;SDS_P2;PMS_P1;PMS_P2;Temp;Humidity;BMP_temperature;BMP_pressure;BME280_temperature;BME280_humidity;BME280_pressure;Samples;Min_cycle;Max_cycle;Signal;HPM_P1;HPM_P2
2022/10/24 00:00:18;;;;;;;8.10;4.05;;;;;;;1.58;80.56;100914.66;4851609;28;20041;-61
2022/10/24 00:03:03;;;;;;;7.72;3.70;;;;;;;1.82;79.56;100921.34;4912615;28;20061;-62
2022/10/24 00:05:49;;;;;;;5.45;3.17;;;;;;;1.87;77.46;100909.47;4945563;28;20486;-62
2022/10/24 00:08:33;;;;;;;4.50;3.30;;;;;;;1.99;76.71;100927.00;4960059;28;20040;-63
2022/10/24 00:14:26;;;;;;;6.05;3.92;;;;;;;2.25;75.54;100920.03;4946177;27;20069;-63
2022/10/24 00:17:11;;;;;;;6.68;3.67;;;;;;;2.19;75.25;100909.53;4942668;28;20075;-63
2022/10/24 00:19:48;;;;;;;5.85;3.65;;;;;;;2.40;75.26;100925.59;4933890;28;20604;-63
2022/10/24 00:22:33;;;;;;;6.22;3.38;;;;;;;2.49;74.85;100907.78;4974923;28;20051;-64
2022/10/24 00:25:16;;;;;;;5.65;3.40;;;;;;;1.97;73.94;100799.78;4944480;28;20058;-62
2022/10/24 00:28:10;;;;;;;4.85;3.15;;;;;;;2.84;74.00;100933.63;4925042;28;20043;-62
2022/10/24 00:30:44;;;;;;;5.80;2.97;;;;;;;2.84;73.47;100928.47;4967193;28;20052;-62
2022/10/24 00:33:46;;;;;;;5.60;3.30;;;;;;;2.91;72.58;100925.22;4913159;28;20065;-62
2022/10/24 00:36:28;;;;;;;3.85;2.95;;;;;;;3.02;71.30;100928.94;4910582;28;20066;-62
2022/10/24 00:39:24;;;;;;;6.18;3.15;;;;;;;3.09;70.53;100923.91;4943178;28;20225;-62
2022/10/24 00:42:10;;;;;;;7.32;3.60;;;;;;;3.25;73.05;100920.88;4952795;28;20150;-62
2022/10/24 00:45:00;;;;;;;4.90;2.83;;;;;;;3.37;69.74;100916.00;4883593;28;20056;-62
2022/10/24 00:47:40;;;;;;;4.57;2.90;;;;;;;3.38;70.72;100920.34;4960226;27;20058;-62
2022/10/24 00:50:20;;;;;;;3.92;2.75;;;;;;;3.23;70.90;100887.28;4899458;28;20041;-62
2022/10/24 00:53:22;;;;;;;4.88;2.67;;;;;;;3.55;70.45;100917.28;4931370;28;20059;-64
2022/10/24 00:56:15;;;;;;;4.15;2.85;;;;;;;3.57;69.26;100911.31;4904119;28;20116;-61
2022/10/24 00:59:01;;;;;;;4.38;3.05;;;;;;;3.63;69.18;100918.31;4939185;28;20052;-63
2022/10/24 01:02:00;;;;;;;5.15;3.22;;;;;;;3.51;67.56;100907.69;4905280;28;20139;-61
2022/10/24 01:04:40;;;;;;;6.05;2.95;;;;;;;3.40;69.05;100917.81;4938879;28;20057;-61
2022/10/24 01:07:27;;;;;;;4.30;2.67;;;;;;;3.42;68.28;100922.16;4898268;28;20044;-63
2022/10/24 01:10:21;;;;;;;4.32;2.38;;;;;;;3.54;67.91;100918.97;4943381;28;20055;-62
2022/10/24 01:13:08;;;;;;;3.10;2.72;;;;;;;3.52;65.67;100909.44;4908305;28;20050;-61
2022/10/24 01:16:00;;;;;;;6.47;2.67;;;;;;;3.52;65.33;100888.75;4954536;28;20060;-62
2022/10/24 01:18:49;;;;;;;3.78;2.33;;;;;;;3.59;65.02;100906.16;4948072;28;20098;-64
2022/10/24 01:21:30;;;;;;;5.72;2.60;;;;;;;3.56;64.75;100919.00;4925213;28;20076;-63
2022/10/24 01:24:53;;;;;;;5.82;2.45;;;;;;;3.52;64.10;100904.25;4916872;28;20107;-63
2022/10/24 01:27:53;;;;;;;2.85;2.60;;;;;;;3.28;64.15;100852.94;4951040;28;20118;-64
2022/10/24 01:30:45;;;;;;;3.40;2.20;;;;;;;3.65;63.74;100909.75;4893476;28;20067;-65
2022/10/24 01:33:34;;;;;;;5.22;2.83;;;;;;;3.74;63.33;100906.47;4945803;27;20154;-64
2022/10/24 01:36:32;;;;;;;4.10;2.22;;;;;;;4.04;62.16;100895.94;4934787;27;20890;-64
2022/10/24 01:39:22;;;;;;;2.15;1.75;;;;;;;4.03;59.81;100898.47;4936905;27;20082;-64
2022/10/24 01:42:18;;;;;;;2.85;2.13;;;;;;;3.96;60.79;100900.06;4927457;27;20133;-63
2022/10/24 01:45:04;;;;;;;4.65;1.95;;;;;;;4.01;59.74;100889.81;4943483;28;20059;-65
2022/10/24 01:48:04;;;;;;;5.30;2.03;;;;;;;4.14;61.02;100890.94;4950272;27;20105;-62
2022/10/24 01:50:44;;;;;;;3.03;2.05;;;;;;;4.32;59.14;100886.13;4953332;27;20047;-66
2022/10/24 01:53:37;;;;;;;3.30;2.10;;;;;;;4.43;60.45;100884.59;4951195;27;20114;-63
2022/10/24 01:56:19;;;;;;;4.22;2.47;;;;;;;4.57;60.24;100881.38;4959887;27;20043;-63
2022/10/24 01:59:16;;;;;;;4.70;2.03;;;;;;;4.86;58.28;100884.50;4960679;28;20178;-64
2022/10/24 02:02:14;;;;;;;2.20;2.00;;;;;;;4.99;58.42;100891.59;4930761;28;20061;-62
2022/10/24 02:05:01;;;;;;;2.88;1.80;;;;;;;5.08;57.46;100896.94;4929123;28;20051;-63
2022/10/24 02:07:38;;;;;;;3.05;1.70;;;;;;;5.06;58.50;100893.44;4950037;27;20031;-64
2022/10/24 02:10:17;;;;;;;2.25;2.05;;;;;;;5.07;57.96;100884.84;4955192;28;20044;-64
2022/10/24 02:13:09;;;;;;;2.38;1.98;;;;;;;5.07;58.39;100879.69;4952683;28;20444;-65
2022/10/24 02:16:03;;;;;;;3.53;1.83;;;;;;;5.06;56.55;100875.31;4924134;28;20102;-65
2022/10/24 02:18:45;;;;;;;2.72;2.03;;;;;;;4.87;58.02;100875.91;4928094;28;20086;-68
2022/10/24 02:21:47;;;;;;;2.30;1.90;;;;;;;4.69;57.14;100898.03;4959805;27;20453;-63
2022/10/24 02:24:22;;;;;;;2.38;1.77;;;;;;;4.79;57.10;100877.47;4952882;28;20066;-65
2022/10/24 02:30:38;;;;;;;6.20;2.20;;;;;;;4.90;58.76;100873.34;4939178;27;22462;-60
2022/10/24 02:33:36;;;;;;;2.33;1.75;;;;;;;5.16;56.14;100879.78;4928497;28;20271;-63
2022/10/24 02:36:22;;;;;;;1.65;1.55;;;;;;;5.04;54.29;100874.44;4944125;27;20050;-65
2022/10/24 02:39:11;;;;;;;2.05;1.75;;;;;;;5.19;55.60;100885.06;4950291;28;20116;-65
2022/10/24 02:42:10;;;;;;;5.00;2.10;;;;;;;5.22;55.18;100879.03;4909798;28;20040;-63
2022/10/24 02:44:54;;;;;;;2.17;1.80;;;;;;;5.38;55.47;100880.13;4947493;27;20049;-63
2022/10/24 02:47:46;;;;;;;3.78;1.80;;;;;;;5.69;55.99;100875.38;4926808;27;20045;-64
2022/10/24 02:50:44;;;;;;;16.80;1.95;;;;;;;5.64;54.33;100867.53;4932125;28;20092;-66
2022/10/24 02:53:35;;;;;;;2.38;1.65;;;;;;;5.24;54.56;100873.88;4962260;28;20078;-62
2022/10/24 02:56:40;;;;;;;3.65;1.88;;;;;;;4.81;55.02;100875.78;4946831;28;20145;-62
2022/10/24 02:59:55;;;;;;;3.28;1.80;;;;;;;4.84;55.87;100870.63;4947889;27;20067;-61
2022/10/24 03:02:34;;;;;;;2.13;1.73;;;;;;;4.94;54.93;100867.34;4875981;28;20096;-61
2022/10/24 03:05:17;;;;;;;4.70;2.03;;;;;;;5.22;55.11;100872.97;4965747;28;20050;-62
2022/10/24 03:08:08;;;;;;;2.70;1.80;;;;;;;5.44;55.05;100859.47;4963746;28;20044;-62
2022/10/24 03:10:49;;;;;;;5.55;1.92;;;;;;;5.49;54.83;100863.03;4885261;28;20072;-63
2022/10/24 03:13:40;;;;;;;6.55;2.50;;;;;;;5.60;54.54;100861.44;4931149;28;20142;-62
2022/10/24 03:16:20;;;;;;;3.80;1.95;;;;;;;5.56;54.00;100870.00;4935451;28;20508;-63
2022/10/24 03:19:05;;;;;;;3.13;1.90;;;;;;;5.59;54.60;100880.44;4936801;27;20637;-61
2022/10/24 03:22:03;;;;;;;2.40;1.50;;;;;;;5.38;53.26;100874.94;4930420;28;20116;-63
2022/10/24 03:25:02;;;;;;;2.92;1.90;;;;;;;5.37;52.95;100881.00;4894573;28;20105;-62
2022/10/24 03:27:49;;;;;;;2.08;1.77;;;;;;;4.95;53.34;100794.00;4938311;28;20047;-62
2022/10/24 03:30:38;;;;;;;2.28;1.58;;;;;;;5.62;53.35;100875.31;4957282;27;20054;-61
2022/10/24 03:33:26;;;;;;;3.03;1.60;;;;;;;5.72;54.35;100881.47;4859476;28;20085;-62
2022/10/24 03:36:05;;;;;;;1.77;1.50;;;;;;;5.49;53.91;100873.41;4963895;27;20069;-60
2022/10/24 03:39:03;;;;;;;2.10;1.55;;;;;;;5.47;51.81;100884.59;4931696;28;20131;-65
2022/10/24 03:41:48;;;;;;;3.13;1.50;;;;;;;5.54;52.19;100876.94;4940627;28;20477;-62
2022/10/24 03:44:35;;;;;;;4.72;1.77;;;;;;;5.61;53.70;100863.16;4908348;28;20051;-63
2022/10/24 03:47:15;;;;;;;4.38;1.80;;;;;;;5.75;52.34;100886.69;4947590;27;20047;-65
2022/10/24 03:53:20;;;;;;;4.10;1.77;;;;;;;5.67;53.73;100877.09;4936411;28;20048;-60
2022/10/24 03:56:07;;;;;;;4.47;1.80;;;;;;;5.58;52.64;100873.50;4945413;27;20058;-66
2022/10/24 03:59:04;;;;;;;2.00;1.63;;;;;;;5.47;53.48;100862.13;4932565;27;20125;-63
2022/10/24 04:02:12;;;;;;;;;;;;;;;5.45;53.28;100876.78;4916297;28;20043;-61
2022/10/24 04:05:00;;;;;;;2.50;1.75;;;;;;;5.54;54.15;100876.94;4954326;28;19959;-62
2022/10/24 04:07:38;;;;;;;2.50;1.90;;;;;;;5.67;54.72;100877.09;4948118;27;20055;-63
2022/10/24 04:10:24;;;;;;;3.72;1.83;;;;;;;5.53;53.21;100869.97;4933088;27;20095;-62
2022/10/24 04:13:14;;;;;;;5.20;1.73;;;;;;;5.63;54.33;100887.41;4896855;28;20059;-62
2022/10/24 04:16:01;;;;;;;3.22;1.88;;;;;;;5.61;54.40;100894.28;4934940;28;20044;-63
2022/10/24 04:18:43;;;;;;;2.30;1.80;;;;;;;5.63;53.82;100882.22;4946715;28;20052;-64
2022/10/24 04:21:32;;;;;;;4.95;1.63;;;;;;;5.59;54.95;100883.03;4936927;28;20116;-64
2022/10/24 04:24:30;;;;;;;3.10;1.67;;;;;;;5.64;54.71;100885.66;4941027;28;20055;-64
2022/10/24 04:27:03;;;;;;;1.88;1.70;;;;;;;5.53;52.71;100893.31;4951080;28;20048;-63
2022/10/24 04:29:40;;;;;;;5.50;1.60;;;;;;;5.37;52.58;100883.59;4931084;28;20040;-63
2022/10/24 04:32:25;;;;;;;3.00;1.65;;;;;;;5.36;53.61;100890.47;4946843;28;20106;-64
2022/10/24 04:35:14;;;;;;;1.60;1.50;;;;;;;5.29;53.44;100882.56;4931693;28;20046;-63
2022/10/24 04:38:00;;;;;;;3.78;1.73;;;;;;;5.46;53.57;100894.06;4899288;28;20055;-64
2022/10/24 04:40:37;;;;;;;2.63;1.67;;;;;;;5.52;53.76;100901.94;4942931;28;20371;-64
2022/10/24 04:43:33;;;;;;;2.55;1.73;;;;;;;5.43;54.13;100908.72;4910110;28;20043;-62
2022/10/24 04:46:40;;;;;;;6.03;2.10;;;;;;;5.32;55.42;100900.78;4936133;28;20064;-63
2022/10/24 04:49:39;;;;;;;2.00;1.70;;;;;;;5.43;55.29;100904.41;4955757;28;20101;-63
2022/10/24 04:52:31;;;;;;;2.20;1.58;;;;;;;5.37;54.97;100893.94;4938857;28;20050;-63
2022/10/24 04:55:10;;;;;;;3.92;1.92;;;;;;;5.26;54.53;100905.84;4949296;28;20384;-63
2022/10/24 04:58:04;;;;;;;3.05;1.40;;;;;;;5.32;52.24;100908.56;4927415;28;20101;-64
2022/10/24 05:00:41;;;;;;;3.35;1.67;;;;;;;5.32;52.57;100905.97;4947337;28;20074;-65
2022/10/24 05:03:22;;;;;;;1.83;1.63;;;;;;;5.26;51.68;100904.13;4960876;28;20052;-65
2022/10/24 05:06:03;;;;;;;2.13;1.63;;;;;;;5.25;53.36;100922.25;4958829;27;20154;-65
2022/10/24 05:08:52;;;;;;;2.28;1.65;;;;;;;5.29;53.16;100916.25;4964588;27;20050;-65
2022/10/24 05:11:32;;;;;;;3.38;2.25;;;;;;;5.24;54.27;100912.72;4945593;27;20317;-64
2022/10/24 05:14:17;;;;;;;2.72;1.80;;;;;;;5.19;56.07;100908.38;4966224;27;20051;-63
2022/10/24 05:16:56;;;;;;;2.30;1.73;;;;;;;5.18;55.97;100904.00;4893209;28;20075;-67
2022/10/24 05:19:49;;;;;;;4.35;1.88;;;;;;;5.16;55.75;100921.25;4930500;28;20055;-63
2022/10/24 05:22:28;;;;;;;4.47;2.17;;;;;;;5.15;55.76;100909.16;4963563;28;20479;-62
2022/10/24 05:25:16;;;;;;;4.15;2.03;;;;;;;5.15;56.44;100922.09;4952265;27;20051;-64
2022/10/24 05:30:58;;;;;;;2.45;1.70;;;;;;;5.11;54.49;100933.25;4873952;28;20047;-63
2022/10/24 05:33:49;;;;;;;3.53;1.70;;;;;;;5.13;56.47;100936.75;4907971;28;20107;-64
2022/10/24 05:36:37;;;;;;;3.50;1.80;;;;;;;5.17;56.16;100935.97;4925228;28;20285;-63
2022/10/24 05:39:17;;;;;;;3.40;1.80;;;;;;;5.23;55.97;100947.28;4893109;28;20044;-65
2022/10/24 05:42:10;;;;;;;2.90;2.30;;;;;;;5.15;55.62;100950.59;4965643;27;20039;-63
2022/10/24 05:44:48;;;;;;;5.57;1.70;;;;;;;4.99;54.87;100935.63;4973238;28;20055;-63
2022/10/24 05:47:36;;;;;;;2.47;1.30;;;;;;;5.08;54.82;100959.13;4932125;28;20107;-65
2022/10/24 05:50:15;;;;;;;4.28;1.92;;;;;;;5.02;54.48;100953.84;4936923;27;20062;-64
2022/10/24 05:52:54;;;;;;;4.13;2.05;;;;;;;5.02;54.66;100959.03;4974475;27;20184;-63
2022/10/24 05:55:52;;;;;;;2.95;2.17;;;;;;;5.00;54.12;100959.84;4927145;28;20056;-63
2022/10/24 05:58:38;;;;;;;2.40;2.00;;;;;;;4.94;56.26;100955.41;4948708;27;20058;-63
2022/10/24 06:01:37;;;;;;;2.40;1.90;;;;;;;4.81;58.00;100958.63;4929458;28;20156;-62
2022/10/24 06:04:15;;;;;;;1.75;1.65;;;;;;;4.72;58.39;100964.53;4928723;27;20056;-64
2022/10/24 06:06:56;;;;;;;4.55;1.90;;;;;;;4.63;58.79;100965.22;4964784;28;20257;-62
2022/10/24 06:09:37;;;;;;;2.45;1.90;;;;;;;4.58;58.66;100969.44;4907075;28;20098;-64
2022/10/24 06:12:11;;;;;;;2.63;1.75;;;;;;;4.56;58.48;100978.88;4935754;28;20041;-64
2022/10/24 06:14:51;;;;;;;2.10;1.90;;;;;;;4.48;58.16;100973.53;4962375;27;20058;-63
2022/10/24 06:17:50;;;;;;;4.20;2.20;;;;;;;4.44;58.11;100984.69;4924315;27;20366;-64
2022/10/24 06:20:38;;;;;;;4.38;2.15;;;;;;;4.42;58.18;100990.66;4954141;28;20051;-63
2022/10/24 06:24:07;;;;;;;5.55;2.20;;;;;;;4.36;58.33;100983.66;4934145;28;20071;-64
2022/10/24 06:31:02;;;;;;;2.55;1.80;;;;;;;4.26;58.96;101005.88;4946618;28;20079;-63
2022/10/24 06:33:48;;;;;;;2.75;1.85;;;;;;;4.20;57.53;101010.94;4973538;27;20035;-65
2022/10/24 06:36:35;;;;;;;7.00;1.80;;;;;;;4.16;57.99;101019.44;4987399;27;20046;-64
2022/10/24 06:39:22;;;;;;;3.35;2.17;;;;;;;4.13;58.48;101019.38;4928705;27;20046;-65
2022/10/24 06:42:10;;;;;;;5.13;3.05;;;;;;;3.98;58.97;101014.75;4956569;28;20061;-63
2022/10/24 06:47:48;;;;;;;5.95;3.40;;;;;;;3.87;60.02;101022.28;4955789;27;20335;-64
2022/10/24 06:50:45;;;;;;;3.35;2.33;;;;;;;3.80;60.40;101028.13;4949939;27;20110;-64
2022/10/24 06:53:34;;;;;;;5.82;2.53;;;;;;;3.63;60.94;101016.53;4929886;28;20050;-65
2022/10/24 06:56:25;;;;;;;2.55;2.20;;;;;;;3.64;61.41;101029.50;4955885;27;20040;-64
2022/10/24 07:02:45;;;;;;;5.07;3.05;;;;;;;3.43;62.35;101032.41;4946586;28;20435;-64
2022/10/24 07:05:40;;;;;;;2.05;1.80;;;;;;;3.30;62.78;101032.94;4950760;28;20043;-65
2022/10/24 07:08:25;;;;;;;3.78;2.15;;;;;;;3.26;62.89;101038.84;4945483;28;20061;-65
2022/10/24 07:11:03;;;;;;;4.10;2.38;;;;;;;3.20;63.24;101046.47;4955301;28;20075;-65
2022/10/24 07:13:35;;;;;;;3.40;2.28;;;;;;;3.12;63.27;101048.84;4903340;28;20051;-64
2022/10/24 07:19:01;;;;;;;5.25;2.20;;;;;;;2.99;64.15;101045.03;4958029;27;20044;-65
2022/10/24 07:21:56;;;;;;;3.17;2.03;;;;;;;2.94;63.82;101049.19;4971945;27;20124;-65
2022/10/24 07:24:34;;;;;;;2.35;1.88;;;;;;;2.84;64.36;101042.03;4904600;28;20072;-66
2022/10/24 07:27:10;;;;;;;4.07;2.63;;;;;;;2.77;64.78;101051.34;4918278;28;20381;-65
2022/10/24 07:29:52;;;;;;;11.77;3.72;;;;;;;2.69;64.77;101046.78;4943091;28;20365;-65
2022/10/24 07:32:33;;;;;;;7.57;4.30;;;;;;;2.62;65.26;101055.16;4939886;28;20051;-64
2022/10/24 07:35:16;;;;;;;11.48;3.97;;;;;;;2.48;66.12;101063.41;4936481;28;20052;-65
2022/10/24 07:40:52;;;;;;;15.65;7.55;;;;;;;1.94;68.79;101058.31;4924656;28;20051;-64
2022/10/24 07:43:39;;;;;;;87.70;37.95;;;;;;;1.65;70.34;101066.00;4932549;28;20056;-65
2022/10/24 07:46:21;;;;;;;107.53;47.50;;;;;;;1.40;71.86;101059.16;4912431;28;20045;-65
2022/10/24 07:48:58;;;;;;;71.63;31.63;;;;;;;1.28;72.49;101054.47;4933419;28;20040;-65
2022/10/24 07:51:48;;;;;;;72.95;30.48;;;;;;;1.16;73.17;101054.03;4910718;28;20044;-65
2022/10/24 07:54:32;;;;;;;31.58;14.88;;;;;;;1.06;73.65;101072.56;4923244;28;20050;-66
2022/10/24 07:57:12;;;;;;;11.30;5.90;;;;;;;0.78;74.37;101063.88;4910850;28;20054;-64
2022/10/24 07:59:45;;;;;;;12.63;6.70;;;;;;;0.76;74.73;101083.50;4929745;27;20048;-66
2022/10/24 08:02:36;;;;;;;28.95;13.88;;;;;;;0.60;75.15;101092.38;4944662;28;20071;-66
2022/10/24 08:05:14;;;;;;;27.98;11.15;;;;;;;0.37;76.01;101083.78;4923384;28;20135;-66
2022/10/24 08:07:56;;;;;;;20.75;8.07;;;;;;;0.32;76.70;101095.56;4930386;28;20067;-65
2022/10/24 08:10:57;;;;;;;9.40;4.82;;;;;;;0.23;77.38;101100.38;4953547;28;20052;-67
2022/10/24 08:13:39;;;;;;;6.20;3.15;;;;;;;0.17;77.03;101102.69;4935608;28;20051;-66
2022/10/24 08:16:17;;;;;;;3.63;2.53;;;;;;;0.07;77.46;101108.28;4927240;28;20060;-65
2022/10/24 08:21:59;;;;;;;4.20;2.35;;;;;;;-0.03;77.84;101113.06;4923879;28;20059;-66
2022/10/24 08:24:39;;;;;;;4.38;2.58;;;;;;;-0.09;78.21;101111.97;4921874;28;20175;-65
2022/10/24 08:27:14;;;;;;;4.55;3.17;;;;;;;-0.48;78.33;101066.72;4942946;28;20056;-64
2022/10/24 08:30:11;;;;;;;;;;;;;;;;;;;;;
2022/10/24 08:32:56;;;;;;;9.02;4.97;;;;;;;-0.02;79.34;101119.97;4935654;28;20000;-61
2022/10/24 08:35:55;;;;;;;9.05;4.72;;;;;;;0.11;79.16;101146.16;4939647;28;20044;-63
2022/10/24 08:38:35;;;;;;;6.47;3.92;;;;;;;0.13;79.49;101134.25;4941128;27;20048;-63
2022/10/24 08:41:21;;;;;;;8.48;3.17;;;;;;;0.07;79.28;101139.13;4940588;27;20052;-63
2022/10/24 08:44:24;;;;;;;8.35;3.70;;;;;;;-0.10;78.94;101134.22;4919718;27;20044;-63
2022/10/24 08:50:48;;;;;;;6.18;3.83;;;;;;;-0.16;79.67;101157.06;4926701;28;20106;-63
2022/10/24 08:53:31;;;;;;;6.13;2.97;;;;;;;-0.17;80.14;101155.31;4940122;28;20139;-63
2022/10/24 08:56:15;;;;;;;5.32;3.30;;;;;;;-0.19;79.50;101164.66;4952630;28;20054;-64
2022/10/24 09:05:44;;;;;;;21.55;10.82;;;;;;;-0.33;79.19;101178.59;4852005;28;20049;-64
2022/10/24 09:08:38;;;;;;;33.45;17.50;;;;;;;-0.48;79.22;101168.53;4929455;28;20464;-64
2022/10/24 09:11:41;;;;;;;33.03;16.65;;;;;;;-0.51;79.42;101184.69;4899405;28;20069;-64
2022/10/24 09:14:22;;;;;;;16.83;8.55;;;;;;;-0.62;79.68;101191.06;4890738;28;20064;-65
2022/10/24 09:17:17;;;;;;;10.93;5.78;;;;;;;-1.08;79.86;101128.31;4890832;28;20059;-64
2022/10/24 09:20:27;;;;;;;6.47;3.72;;;;;;;-0.72;80.06;101199.19;4887319;28;20054;-64
2022/10/24 09:23:06;;;;;;;3.45;2.60;;;;;;;-0.76;79.64;101194.72;4881101;28;20045;-63
2022/10/24 09:26:00;;;;;;;3.17;2.45;;;;;;;-0.84;79.14;101198.63;4896200;28;20059;-64
2022/10/24 09:32:06;;;;;;;20.75;9.00;;;;;;;-1.05;78.86;101199.41;4923301;28;20038;-65
2022/10/24 09:35:06;;;;;;;18.75;10.23;;;;;;;-1.46;78.98;101154.78;4897264;28;20079;-63
2022/10/24 09:38:02;;;;;;;8.75;4.70;;;;;;;-1.50;79.27;101164.81;4895923;28;20048;-64
2022/10/24 09:41:06;;;;;;;4.88;2.42;;;;;;;-1.35;78.72;101199.78;4934428;28;20057;-64
2022/10/24 09:43:52;;;;;;;4.95;2.30;;;;;;;-1.43;78.97;101206.19;4937110;28;20059;-63
2022/10/24 09:46:25;;;;;;;4.63;2.30;;;;;;;-1.59;78.78;101190.91;4955893;28;20060;-64
2022/10/24 09:49:25;;;;;;;5.97;2.40;;;;;;;-1.68;78.93;101198.16;4921687;28;20052;-64
2022/10/24 09:52:23;;;;;;;2.50;1.85;;;;;;;-1.69;78.98;101204.09;4927942;28;20113;-64
2022/10/24 09:55:41;;;;;;;2.28;2.00;;;;;;;-1.80;79.00;101199.34;4944970;28;20105;-64
2022/10/24 09:58:41;;;;;;;3.35;2.00;;;;;;;-1.73;78.44;101211.63;4930451;27;20055;-64
2022/10/24 10:01:23;;;;;;;1.83;1.67;;;;;;;-1.75;78.41;101212.34;4957582;27;20132;-63
2022/10/24 10:04:16;;;;;;;2.55;2.00;;;;;;;-1.81;78.05;101207.81;4959426;27;20046;-65
2022/10/24 10:07:01;;;;;;;4.45;2.83;;;;;;;-1.77;78.41;101230.22;4965841;27;20220;-63
2022/10/24 10:10:05;;;;;;;3.33;2.20;;;;;;;-1.61;78.67;101226.72;4940607;28;20063;-65
2022/10/24 10:13:01;;;;;;;3.17;2.13;;;;;;;-1.58;78.61;101220.84;4958296;27;20110;-63
2022/10/24 10:16:21;;;;;;;5.28;2.75;;;;;;;-1.75;79.28;101177.38;4958565;27;20039;-61
2022/10/24 10:21:56;;;;;;;;;;;;;;;-1.52;80.60;101242.53;4931150;28;20123;-64
2022/10/24 10:24:48;;;;;;;12.27;6.07;;;;;;;-1.63;80.98;101232.56;4940973;28;19959;-64
2022/10/24 10:27:41;;;;;;;12.65;6.32;;;;;;;-1.60;81.48;101242.97;4947509;28;20044;-62
2022/10/24 10:30:27;;;;;;;9.35;4.93;;;;;;;-1.74;81.36;101219.25;4890533;28;20044;-63
2022/10/24 10:33:29;;;;;;;14.75;5.75;;;;;;;-1.74;81.42;101232.94;4925545;28;20051;-64
2022/10/24 10:36:17;;;;;;;24.30;9.13;;;;;;;-1.68;81.42;101249.41;4892589;28;20044;-62
2022/10/24 10:39:20;;;;;;;25.02;11.25;;;;;;;-1.74;81.28;101256.00;4917827;28;20139;-63
2022/10/24 10:42:31;;;;;;;30.80;12.95;;;;;;;-1.89;81.56;101234.75;4927896;28;20082;-62
2022/10/24 10:45:18;;;;;;;69.63;26.00;;;;;;;-1.84;81.33;101258.03;4910444;28;20052;-62
2022/10/24 10:48:05;;;;;;;95.88;32.70;;;;;;;-1.87;81.32;101263.88;4910692;28;20038;-63
2022/10/24 10:51:09;;;;;;;69.50;29.02;;;;;;;-1.93;81.85;101257.56;4914122;28;20424;-62
2022/10/24 10:54:29;;;;;;;40.47;17.80;;;;;;;-2.09;81.41;101235.44;4921706;28;20058;-62
2022/10/24 10:57:29;;;;;;;61.22;26.02;;;;;;;-1.93;81.98;101258.44;4929771;28;20037;-63
2022/10/24 11:00:07;;;;;;;70.00;30.35;;;;;;;-1.78;82.32;101274.56;4913361;28;20384;-63
2022/10/24 11:03:48;;;;;;;;;;;;;;;;;;;;;
2022/10/24 11:06:36;;;;;;;28.13;13.82;;;;;;;-1.87;83.24;101286.94;4925356;28;20060;-61
2022/10/24 11:09:53;;;;;;;31.13;15.05;;;;;;;-1.90;83.47;101289.31;4935329;28;20084;-62
2022/10/24 11:13:06;;;;;;;45.58;22.25;;;;;;;-1.99;83.35;101294.00;4939922;28;20106;-61
2022/10/24 11:16:18;;;;;;;40.00;18.55;;;;;;;-2.06;83.30;101294.50;4905857;28;20059;-62
2022/10/24 11:23:04;;;;;;;9.50;5.68;;;;;;;-2.20;83.99;101289.56;4924368;28;20535;-62
2022/10/24 11:26:12;;;;;;;31.83;11.20;;;;;;;-2.12;83.78;101297.63;4916363;28;20132;-62
2022/10/24 11:33:01;;;;;;;46.35;17.00;;;;;;;-2.44;83.12;101308.75;4940512;28;20104;-63
2022/10/24 11:35:58;;;;;;;42.85;22.00;;;;;;;-2.68;83.18;101296.38;4914808;28;20044;-61
2022/10/24 11:42:09;;;;;;;18.10;11.23;;;;;;;-2.64;83.06;101318.78;4915901;28;20051;-62
2022/10/24 11:45:06;;;;;;;13.68;7.43;;;;;;;-2.60;83.03;101317.25;4938176;28;20065;-61
2022/10/24 11:48:09;;;;;;;8.80;4.20;;;;;;;-2.58;83.01;101309.69;4890507;28;20265;-61
2022/10/24 11:51:01;;;;;;;4.47;3.33;;;;;;;-2.52;83.26;101316.03;4817162;28;20374;-62
2022/10/24 11:53:58;;;;;;;3.13;2.40;;;;;;;-2.45;83.16;101324.88;4860540;28;20058;-61
2022/10/24 11:56:55;;;;;;;5.72;2.88;;;;;;;-2.51;82.57;101319.47;4837554;28;20069;-62
2022/10/24 11:59:39;;;;;;;179.57;56.72;;;;;;;-2.61;82.78;101325.75;4838323;28;20254;-63
2022/10/24 12:03:15;;;;;;;158.00;51.20;;;;;;;-2.67;82.81;101328.88;4834592;28;20074;-62
2022/10/24 12:06:34;;;;;;;142.40;49.88;;;;;;;-2.74;82.75;101331.91;4769105;28;20098;-62
2022/10/24 12:09:37;;;;;;;101.63;38.38;;;;;;;-2.73;82.87;101331.09;4827927;28;20134;-63
2022/10/24 12:12:34;;;;;;;70.85;27.63;;;;;;;-2.71;82.91;101334.59;4828367;28;20097;-62
2022/10/24 12:15:36;;;;;;;17.13;7.85;;;;;;;-2.70;83.02;101323.56;4823569;28;20054;-62
2022/10/24 12:18:35;;;;;;;22.90;8.95;;;;;;;-2.75;83.32;101317.31;4811215;28;20125;-63
2022/10/24 12:21:25;;;;;;;16.45;8.38;;;;;;;-2.71;83.31;101328.63;4827358;28;20051;-62
2022/10/24 12:24:29;;;;;;;7.95;4.35;;;;;;;-2.72;83.74;101327.75;4830297;29;20039;-62
2022/10/24 12:27:34;;;;;;;3.90;2.97;;;;;;;-2.80;83.81;101313.63;4799286;28;20375;-64
2022/10/24 12:33:27;;;;;;;6.53;3.78;;;;;;;-2.77;84.01;101329.19;4869574;28;20045;-62
2022/10/24 12:36:01;;;;;;;61.58;24.63;;;;;;;-2.81;83.75;101329.78;4899425;28;20050;-63
2022/10/24 12:39:10;;;;;;;28.77;11.52;;;;;;;-2.86;83.82;101337.22;4917275;28;20056;-62
2022/10/24 12:42:09;;;;;;;11.07;5.03;;;;;;;-2.86;84.26;101344.00;4862453;28;20037;-62
2022/10/24 12:47:45;;;;;;;15.57;8.00;;;;;;;-2.81;84.42;101340.03;4891618;28;20071;-62
2022/10/24 12:51:08;;;;;;;8.02;4.88;;;;;;;-2.79;84.50;101341.00;4940964;28;20040;-62
2022/10/24 12:54:07;;;;;;;10.98;5.68;;;;;;;-2.79;84.38;101351.22;4935561;28;20281;-62
2022/10/24 12:57:16;;;;;;;7.03;4.13;;;;;;;-2.82;84.21;101345.94;4852427;28;20257;-63
2022/10/24 12:59:50;;;;;;;9.70;5.80;;;;;;;-2.86;84.19;101350.00;4922166;28;20049;-63
2022/10/24 13:06:03;;;;;;;6.75;3.78;;;;;;;-2.78;84.65;101352.97;4847183;28;20372;-62
2022/10/24 13:09:20;;;;;;;5.45;3.45;;;;;;;-2.79;84.70;101346.13;4856479;28;20040;-62
2022/10/24 13:12:23;;;;;;;4.10;2.92;;;;;;;-2.80;84.59;101354.56;4834805;28;20048;-64
2022/10/24 13:15:28;;;;;;;3.60;2.72;;;;;;;-2.83;84.60;101359.50;4784712;28;20222;-62
2022/10/24 13:18:30;;;;;;;4.22;2.55;;;;;;;-2.91;84.02;101355.66;4889103;28;20107;-63
2022/10/24 13:21:23;;;;;;;6.80;4.63;;;;;;;-2.96;84.04;101363.06;4784748;28;20051;-62
2022/10/24 13:24:32;;;;;;;6.90;4.30;;;;;;;-2.93;84.52;101364.91;4864200;28;20053;-64
2022/10/24 13:27:33;;;;;;;5.80;3.85;;;;;;;-2.96;84.99;101367.31;4848661;28;20175;-62
2022/10/24 13:30:36;;;;;;;4.63;3.00;;;;;;;-2.95;85.13;101353.72;4843327;28;20108;-62
2022/10/24 13:33:48;;;;;;;5.22;3.00;;;;;;;-2.93;85.52;101349.56;4888277;28;20037;-62
2022/10/24 13:36:41;;;;;;;4.90;2.40;;;;;;;-2.86;85.38;101364.47;4896241;28;20098;-62
2022/10/24 13:39:42;;;;;;;3.53;2.50;;;;;;;-2.96;84.69;101363.06;4895597;28;20040;-62
2022/10/24 13:42:34;;;;;;;3.87;2.63;;;;;;;-3.03;85.05;101361.84;4916994;28;20048;-63
2022/10/24 13:45:39;;;;;;;6.50;2.60;;;;;;;-3.09;85.11;101366.63;4941205;28;20279;-62
2022/10/24 13:48:37;;;;;;;4.53;3.10;;;;;;;-3.13;85.48;101359.56;4933022;28;20050;-63
2022/10/24 13:51:20;;;;;;;4.78;3.05;;;;;;;-3.12;85.36;101361.34;4914426;28;20048;-62
2022/10/24 13:54:12;;;;;;;3.33;2.63;;;;;;;-3.21;85.35;101365.94;4925589;28;20032;-62
2022/10/24 13:57:04;;;;;;;4.10;2.90;;;;;;;-3.21;84.82;101365.06;4858430;28;20049;-61
2022/10/24 13:59:41;;;;;;;4.50;2.47;;;;;;;-3.17;84.81;101375.56;4908404;28;20053;-62
2022/10/24 14:02:32;;;;;;;3.47;2.70;;;;;;;-3.13;84.98;101380.03;4923275;28;20093;-62
2022/10/24 14:05:31;;;;;;;3.40;2.58;;;;;;;-3.23;85.27;101341.94;4922185;28;20100;-62
2022/10/24 14:08:09;;;;;;;3.85;2.60;;;;;;;-3.13;85.13;101364.69;4901784;28;20060;-62
2022/10/24 14:10:58;;;;;;;3.38;2.50;;;;;;;-3.15;85.19;101363.72;4926174;28;20225;-63
2022/10/24 14:13:54;;;;;;;4.05;2.83;;;;;;;-3.10;85.62;101359.72;4891421;28;20092;-62
2022/10/24 14:17:07;;;;;;;4.85;2.58;;;;;;;-3.01;85.63;101358.50;4883880;28;20689;-63
2022/10/24 14:19:58;;;;;;;3.70;2.65;;;;;;;-3.11;85.35;101339.22;4912119;28;20402;-62
2022/10/24 14:22:48;;;;;;;4.22;2.88;;;;;;;-2.98;84.88;101369.78;4896640;28;20124;-62
2022/10/24 14:25:25;;;;;;;;;;;;;;;-2.99;84.64;101364.59;4884138;28;20064;-62
2022/10/24 14:31:03;;;;;;;3.53;2.85;;;;;;;-3.49;84.24;101303.03;4886710;28;20086;-62
2022/10/24 14:33:50;;;;;;;9.32;5.28;;;;;;;-3.29;83.90;101370.59;4869571;28;20038;-63